Time;durP1;ratioP1;P1;durP2;ratioP2;P2;SDS_P1;SDS_P2;PMS_P1;PMS_P2;Temp;Humidity;BMP_temperature;BMP_pressure;BME280_temperature;BME280_humidity;BME280_pressure;Samples;Min_cycle;Max_cycle;Signal;HPM_P1;HPM_P2
2022/01/22 00:01:55;;;;;;;2.08;1.88;;;;;;;-5.33;50.72;94069.38;5023564;28;20869;-75
2022/01/22 00:04:20;;;;;;;4.22;1.48;;;;;;;-5.40;50.36;94066.00;5024707;28;20069;-75
2022/01/22 00:06:46;;;;;;;6.38;2.28;;;;;;;-5.40;50.59;94076.38;5023654;28;20034;-74
2022/01/22 00:09:12;;;;;;;1.90;1.80;;;;;;;-5.42;51.10;94052.47;5025151;28;20037;-77
2022/01/22 00:11:41;;;;;;;2.33;2.13;;;;;;;-5.14;49.91;94070.25;5027158;28;20068;-75
2022/01/22 00:16:57;;;;;;;5.17;2.43;;;;;;;-4.85;49.75;94074.03;5028103;28;20122;-75
2022/01/22 00:19:23;;;;;;;3.35;2.47;;;;;;;-4.86;49.04;94051.69;5027380;28;20313;-75
2022/01/22 00:21:51;;;;;;;3.70;2.83;;;;;;;-4.86;49.33;94067.25;5023629;28;20471;-73
2022/01/22 00:24:17;;;;;;;4.82;3.78;;;;;;;-4.82;49.72;94075.38;5023022;28;20026;-72
2022/01/22 00:26:44;;;;;;;4.50;2.30;;;;;;;-4.95;49.63;94065.91;5029020;28;20041;-76
2022/01/22 00:29:10;;;;;;;2.72;2.60;;;;;;;-4.98;49.98;94063.75;5023688;28;20038;-74
2022/01/22 00:31:37;;;;;;;2.42;2.28;;;;;;;-4.98;50.07;94074.13;5024036;28;20037;-74
2022/01/22 00:34:03;;;;;;;2.58;2.42;;;;;;;-4.99;49.95;94072.53;5023355;28;20049;-75
2022/01/22 00:36:29;;;;;;;2.28;2.17;;;;;;;-5.35;50.54;94048.03;5024047;28;20034;-75
2022/01/22 00:38:54;;;;;;;4.60;4.10;;;;;;;-5.17;50.65;94051.72;5024562;28;20095;-75
2022/01/22 00:41:20;;;;;;;1.83;1.73;;;;;;;-5.21;49.92;94053.94;5021600;28;20045;-75
2022/01/22 00:43:46;;;;;;;2.78;2.33;;;;;;;-5.54;49.97;94011.88;5026544;28;20040;-74
2022/01/22 00:46:12;;;;;;;2.58;2.38;;;;;;;-5.47;49.25;94039.34;5021044;28;20042;-75
2022/01/22 00:48:37;;;;;;;4.10;3.25;;;;;;;-5.35;49.76;94040.25;5018712;28;20026;-74
2022/01/22 00:51:02;;;;;;;1.73;1.63;;;;;;;-5.04;49.49;94069.78;5023382;28;20025;-75
2022/01/22 00:53:28;;;;;;;2.33;2.10;;;;;;;-5.02;49.95;94067.75;5021099;28;20042;-75
2022/01/22 00:55:53;;;;;;;7.68;3.63;;;;;;;-4.94;49.11;94050.16;5026071;28;20052;-75
2022/01/22 00:58:19;;;;;;;2.92;2.72;;;;;;;-4.81;48.90;94079.56;5022756;28;20038;-75
2022/01/22 01:00:45;;;;;;;2.42;1.88;;;;;;;-4.75;48.59;94068.34;5023250;28;20049;-75
2022/01/22 01:03:10;;;;;;;3.53;2.22;;;;;;;-4.93;49.02;94061.31;5022770;28;20538;-75
2022/01/22 01:05:36;;;;;;;5.95;2.17;;;;;;;-4.96;48.83;94041.78;5025738;28;21022;-72
2022/01/22 01:08:03;;;;;;;3.55;2.28;;;;;;;-4.91;49.26;94065.28;5026398;28;20033;-75
2022/01/22 01:10:29;;;;;;;2.08;1.60;;;;;;;-5.07;49.55;94050.22;5023613;28;20046;-75
2022/01/22 01:12:54;;;;;;;2.20;2.00;;;;;;;-5.10;49.79;94045.47;5020525;28;20048;-75
2022/01/22 01:15:55;;;;;;;2.47;2.28;;;;;;;-5.08;49.92;94063.44;5024365;28;20025;-73
2022/01/22 01:32:21;;;;;;;1.88;1.83;;;;;;;-5.34;50.03;94035.88;5024986;28;20053;-75
2022/01/22 01:34:48;;;;;;;1.55;1.45;;;;;;;-5.32;50.25;94037.25;5014997;28;20040;-75
2022/01/22 01:37:19;;;;;;;2.50;1.95;;;;;;;-5.30;49.98;94031.84;5014318;28;20528;-75
2022/01/22 01:39:48;;;;;;;4.10;2.15;;;;;;;-5.26;49.98;94030.44;5023247;28;20072;-75
2022/01/22 01:42:23;;;;;;;2.38;2.15;;;;;;;-5.20;49.86;94031.38;5020767;28;20664;-76
2022/01/22 01:44:49;;;;;;;2.17;1.90;;;;;;;-5.32;49.80;93995.75;5023825;28;20052;-74
2022/01/22 01:47:17;;;;;;;2.13;1.88;;;;;;;-5.06;49.44;94022.50;5023251;28;20050;-75
2022/01/22 01:49:43;;;;;;;4.45;3.03;;;;;;;-5.06;49.37;94019.91;5021033;28;20037;-75
2022/01/22 01:52:14;;;;;;;8.32;4.50;;;;;;;-5.36;49.51;94010.16;5024828;28;20041;-74
2022/01/22 01:54:58;;;;;;;6.50;2.55;;;;;;;-5.15;49.23;94018.59;5021361;28;20040;-75
2022/01/22 01:57:31;;;;;;;4.65;3.42;;;;;;;-5.18;49.21;93998.28;5021960;28;20114;-74
2022/01/22 01:59:57;;;;;;;3.15;2.30;;;;;;;-5.19;49.07;93983.72;5023235;28;20029;-73
2022/01/22 02:02:25;;;;;;;4.88;3.15;;;;;;;-5.16;49.30;93988.47;5022359;28;20037;-75
2022/01/22 02:04:50;;;;;;;4.45;2.50;;;;;;;-4.83;48.89;94019.34;5026312;28;20377;-75
2022/01/22 02:07:16;;;;;;;3.83;3.22;;;;;;;-4.84;48.56;94007.38;5027018;28;20069;-75
2022/01/22 02:09:43;;;;;;;6.15;2.80;;;;;;;-4.89;48.58;94008.81;5022646;28;20049;-75
2022/01/22 02:12:33;;;;;;;2.53;2.33;;;;;;;-4.92;48.72;93985.06;5025176;28;20033;-75
2022/01/22 02:25:56;;;;;;;2.17;1.67;;;;;;;-4.72;47.67;94001.25;5023782;28;20068;-75
2022/01/22 02:28:22;;;;;;;1.83;1.73;;;;;;;-4.95;48.12;93991.50;5023181;28;20551;-73
2022/01/22 02:30:52;;;;;;;3.45;1.95;;;;;;;-5.00;48.51;93988.75;5033856;28;20034;-74
2022/01/22 02:33:31;;;;;;;1.95;1.85;;;;;;;-5.32;48.89;93964.66;5011515;28;20112;-77
2022/01/22 02:36:03;;;;;;;1.92;1.83;;;;;;;-5.25;49.19;93984.56;5016541;28;20037;-76
2022/01/22 02:38:44;;;;;;;1.50;1.40;;;;;;;-5.49;48.71;93968.78;5017995;28;20038;-75
2022/01/22 02:41:16;;;;;;;1.63;1.50;;;;;;;-5.84;49.37;93965.81;5022453;28;20034;-75
2022/01/22 02:43:41;;;;;;;1.63;1.52;;;;;;;-5.84;49.71;93967.59;5021820;28;20593;-75
2022/01/22 02:46:06;;;;;;;1.38;1.38;;;;;;;-5.69;49.13;93983.66;5017320;28;20045;-75
2022/01/22 02:48:32;;;;;;;1.80;1.70;;;;;;;-5.63;49.35;93988.00;5009363;28;20040;-73
2022/01/22 02:50:57;;;;;;;2.33;1.80;;;;;;;-5.53;49.28;93977.97;5024834;28;20021;-74
2022/01/22 02:53:23;;;;;;;4.65;2.92;;;;;;;-5.26;49.02;93982.97;5021026;28;20110;-75
2022/01/22 02:55:48;;;;;;;5.93;3.72;;;;;;;-5.75;48.88;93899.78;5020618;28;20139;-75
2022/01/22 02:58:14;;;;;;;3.38;2.05;;;;;;;-5.05;48.42;93991.19;5029277;28;20406;-75
2022/01/22 03:00:41;;;;;;;2.50;2.15;;;;;;;-4.92;48.04;93992.84;5030497;28;20042;-74
2022/01/22 03:03:07;;;;;;;2.50;1.92;;;;;;;-5.04;47.72;93986.78;5031191;28;20025;-75
2022/01/22 03:05:33;;;;;;;2.25;2.15;;;;;;;-4.99;47.79;93994.72;5028535;28;20049;-73
2022/01/22 03:08:04;;;;;;;2.25;1.50;;;;;;;-5.38;47.74;93959.53;5028187;28;20045;-73
2022/01/22 03:10:30;;;;;;;2.90;1.42;;;;;;;-5.21;47.43;93986.50;5025105;28;20042;-73
2022/01/22 03:18:39;;;;;;;1.60;1.50;;;;;;;-5.32;48.29;93938.72;5028834;28;20044;-73
2022/01/22 03:21:13;;;;;;;1.98;1.88;;;;;;;-5.23;47.84;93954.03;5030975;28;20022;-75
2022/01/22 03:29:15;;;;;;;1.75;1.70;;;;;;;-5.41;48.19;93932.22;5026019;28;20052;-72
2022/01/22 03:31:42;;;;;;;2.42;2.22;;;;;;;-5.45;48.19;93915.50;5031519;28;20045;-75
2022/01/22 03:34:07;;;;;;;4.05;2.33;;;;;;;-5.40;48.34;93935.63;5031648;28;20050;-75
2022/01/22 03:36:34;;;;;;;1.92;1.80;;;;;;;-5.17;47.88;93940.22;5022330;28;20033;-73
2022/01/22 03:39:04;;;;;;;1.70;1.60;;;;;;;-5.39;48.01;93922.44;5025415;28;20026;-74
2022/01/22 03:41:30;;;;;;;5.15;2.17;;;;;;;-5.20;47.54;93925.06;5028811;28;20042;-73
2022/01/22 03:43:56;;;;;;;1.60;1.50;;;;;;;-5.47;47.26;93914.94;5024349;28;20112;-72
2022/01/22 03:46:22;;;;;;;1.63;1.58;;;;;;;-5.46;47.20;93926.88;5022676;28;20489;-74
2022/01/22 03:48:48;;;;;;;1.98;1.40;;;;;;;-5.57;47.55;93912.03;5023126;28;20051;-77
2022/01/22 03:51:14;;;;;;;1.80;1.70;;;;;;;-5.50;47.05;93930.09;5027795;28;20565;-75
2022/01/22 03:53:39;;;;;;;2.03;1.35;;;;;;;-5.64;47.44;93924.22;5020795;28;20073;-75
2022/01/22 03:56:07;;;;;;;5.05;1.73;;;;;;;-5.67;47.58;93921.28;5029685;28;20105;-75
2022/01/22 03:58:40;;;;;;;1.60;1.60;;;;;;;-5.67;47.67;93890.19;5023413;28;20041;-76
2022/01/22 04:04:00;;;;;;;2.17;1.70;;;;;;;-5.69;47.93;93884.41;5021528;28;20418;-75
2022/01/22 04:09:20;;;;;;;1.55;1.48;;;;;;;-5.52;48.25;93899.25;5018158;28;20049;-72
2022/01/22 04:11:46;;;;;;;1.52;1.42;;;;;;;-5.26;47.90;93929.31;5035934;28;20034;-75
2022/01/22 04:14:49;;;;;;;1.90;1.80;;;;;;;-5.17;48.15;93932.44;5025336;28;20096;-75
2022/01/22 04:24:57;;;;;;;3.42;2.63;;;;;;;-4.44;46.11;93931.47;5024256;28;20520;-75
2022/01/22 04:27:27;;;;;;;3.88;2.55;;;;;;;-4.43;45.72;93925.25;5026639;28;20703;-74
2022/01/22 04:29:57;;;;;;;1.55;1.45;;;;;;;-4.49;46.73;93902.75;5029658;28;20017;-75
2022/01/22 04:32:24;;;;;;;1.88;1.70;;;;;;;-4.66;46.76;93912.16;5028478;28;20022;-75
2022/01/22 04:34:50;;;;;;;3.15;2.65;;;;;;;-4.73;46.89;93880.28;5025995;28;20048;-75
2022/01/22 04:37:18;;;;;;;3.20;1.60;;;;;;;-4.44;46.12;93895.13;5025977;28;20041;-75
2022/01/22 04:39:45;;;;;;;8.38;2.35;;;;;;;-4.78;45.49;93837.88;5025496;28;20068;-76
2022/01/22 04:42:10;;;;;;;1.77;1.67;;;;;;;-4.61;45.94;93883.75;5029080;28;20116;-75
2022/01/22 04:44:43;;;;;;;1.45;1.35;;;;;;;-4.50;46.15;93895.22;5025026;28;20065;-75
2022/01/22 04:54:59;;;;;;;4.47;1.67;;;;;;;-4.39;47.94;93899.66;5025904;28;20052;-75
2022/01/22 04:57:35;;;;;;;1.98;1.88;;;;;;;-4.06;47.71;93899.25;5025729;28;20046;-75
2022/01/22 05:00:03;;;;;;;2.15;1.75;;;;;;;-4.20;46.20;93882.25;5029526;28;20026;-75
2022/01/22 05:02:29;;;;;;;1.70;1.55;;;;;;;-4.27;45.18;93890.13;5026959;28;20068;-75
2022/01/22 05:04:54;;;;;;;1.70;1.60;;;;;;;-4.67;45.04;93850.88;5027675;28;20072;-75
2022/01/22 05:07:20;;;;;;;1.30;1.20;;;;;;;-4.77;46.71;93862.78;5027396;28;20052;-75
2022/01/22 05:09:45;;;;;;;1.73;1.60;;;;;;;-4.63;44.97;93875.38;5023609;28;20054;-74
2022/01/22 05:12:11;;;;;;;1.23;1.23;;;;;;;-5.12;46.35;93862.56;5024551;28;20055;-74
2022/01/22 05:14:36;;;;;;;7.00;1.90;;;;;;;-5.51;47.96;93882.66;5020752;28;20076;-76
2022/01/22 05:17:05;;;;;;;7.88;2.20;;;;;;;-5.79;50.29;93870.13;5019993;28;20039;-75
2022/01/22 05:22:14;;;;;;;3.03;1.88;;;;;;;-5.94;50.62;93874.03;5023488;28;20406;-74
2022/01/22 05:24:44;;;;;;;1.77;1.50;;;;;;;-6.03;50.76;93845.03;5018794;28;20462;-73
2022/01/22 05:37:33;;;;;;;3.35;2.08;;;;;;;-5.54;50.25;93877.91;5024479;28;20075;-74
2022/01/22 05:39:58;;;;;;;1.42;1.40;;;;;;;-5.47;50.56;93878.66;5016548;28;20042;-75
2022/01/22 05:42:24;;;;;;;1.55;1.45;;;;;;;-5.44;50.40;93885.22;5001890;28;20488;-76
2022/01/22 05:44:49;;;;;;;1.88;1.75;;;;;;;-5.61;50.87;93879.75;5022172;28;20765;-75
2022/01/22 05:47:20;;;;;;;1.38;1.27;;;;;;;-5.57;50.87;93887.91;5019261;28;20519;-73
2022/01/22 05:49:46;;;;;;;1.77;1.58;;;;;;;-5.45;51.11;93881.03;5017800;28;20056;-75
2022/01/22 05:52:14;;;;;;;1.48;1.48;;;;;;;-5.44;50.72;93883.41;5024979;28;20128;-75
2022/01/22 05:54:57;;;;;;;2.63;1.90;;;;;;;-5.45;51.12;93878.44;5020493;28;20034;-71
2022/01/22 06:00:08;;;;;;;1.83;1.65;;;;;;;-5.49;50.73;93878.06;5024076;28;20059;-73
2022/01/22 06:02:33;;;;;;;2.13;1.92;;;;;;;-5.61;50.33;93853.84;5021505;28;20038;-75
2022/01/22 06:04:59;;;;;;;1.40;1.35;;;;;;;-5.45;50.04;93871.44;5024642;28;20125;-73
2022/01/22 06:07:24;;;;;;;2.15;1.95;;;;;;;-5.48;49.51;93855.53;5026267;28;20061;-75
2022/01/22 06:15:09;;;;;;;1.65;1.50;;;;;;;-5.02;49.38;93858.47;5027177;28;20041;-75
2022/01/22 06:17:34;;;;;;;1.40;1.30;;;;;;;-5.17;49.48;93862.44;5020473;28;20042;-73
2022/01/22 06:19:59;;;;;;;1.50;1.48;;;;;;;-5.37;49.84;93847.06;5022631;28;20034;-75
2022/01/22 06:22:25;;;;;;;2.10;1.80;;;;;;;-5.28;49.94;93881.28;5019682;28;20060;-75
2022/01/22 06:24:50;;;;;;;5.20;2.00;;;;;;;-5.63;50.22;93849.88;5021712;28;20048;-74
2022/01/22 06:27:15;;;;;;;2.15;2.03;;;;;;;-5.75;50.77;93845.38;5021157;28;20410;-75
2022/01/22 06:29:41;;;;;;;1.95;1.85;;;;;;;-5.66;50.11;93861.47;5023105;28;20045;-74
2022/01/22 06:32:07;;;;;;;2.20;1.55;;;;;;;-5.67;50.26;93875.44;5026627;28;20049;-74
2022/01/22 06:34:32;;;;;;;3.33;2.35;;;;;;;-5.82;50.44;93890.50;5026579;28;20069;-74
2022/01/22 06:36:58;;;;;;;3.03;2.40;;;;;;;-5.84;50.40;93885.53;5025096;28;20668;-74
2022/01/22 06:39:24;;;;;;;2.03;1.92;;;;;;;-5.83;50.71;93863.00;5026879;28;20075;-75
2022/01/22 06:41:49;;;;;;;1.63;1.52;;;;;;;-5.75;50.10;93837.63;5027182;28;20276;-74
2022/01/22 06:44:24;;;;;;;1.77;1.50;;;;;;;-5.65;49.89;93881.19;5025727;28;20409;-75
2022/01/22 06:46:54;;;;;;;2.78;1.77;;;;;;;-5.88;50.22;93842.13;5019779;28;20044;-75
2022/01/22 06:49:20;;;;;;;3.38;2.42;;;;;;;-6.38;50.83;93795.47;5023362;28;20041;-75
2022/01/22 06:51:45;;;;;;;6.53;1.83;;;;;;;-6.03;50.46;93837.25;5025894;28;20045;-75
2022/01/22 06:54:13;;;;;;;2.67;2.47;;;;;;;-6.11;50.82;93828.94;5023656;28;20036;-75
2022/01/22 06:56:38;;;;;;;3.85;3.42;;;;;;;-5.96;51.16;93850.97;5025024;28;20130;-75
2022/01/22 06:59:14;;;;;;;2.60;2.35;;;;;;;-5.95;51.01;93857.69;5024494;28;20057;-72
2022/01/22 07:01:39;;;;;;;2.38;2.20;;;;;;;-6.07;50.93;93845.66;5028447;28;20038;-76
2022/01/22 07:04:06;;;;;;;2.83;2.58;;;;;;;-6.05;50.83;93822.94;5028405;28;20576;-74
2022/01/22 07:06:32;;;;;;;2.05;1.67;;;;;;;-5.84;50.41;93856.22;5028598;28;20059;-75
2022/01/22 07:08:57;;;;;;;2.20;2.10;;;;;;;-5.92;50.27;93828.00;5030415;28;20686;-75
2022/01/22 07:11:23;;;;;;;2.05;1.73;;;;;;;-5.63;49.74;93857.66;5027415;28;20044;-75
2022/01/22 07:13:48;;;;;;;1.63;1.63;;;;;;;-5.46;49.36;93853.50;5027767;28;20061;-75
2022/01/22 07:16:14;;;;;;;2.25;1.83;;;;;;;-5.53;49.16;93843.22;5028566;28;20038;-75
2022/01/22 07:18:40;;;;;;;2.13;1.90;;;;;;;-5.25;49.39;93860.09;5024463;28;20033;-74
2022/01/22 07:21:14;;;;;;;2.50;2.30;;;;;;;-4.96;48.39;93852.41;5027778;28;20215;-73
2022/01/22 07:26:08;;;;;;;4.50;3.05;;;;;;;-4.73;48.48;93827.63;5026674;28;20098;-72
2022/01/22 07:28:34;;;;;;;1.50;1.40;;;;;;;-5.03;47.27;93767.91;5028385;28;20057;-74
2022/01/22 07:31:00;;;;;;;1.85;1.75;;;;;;;-4.60;47.98;93817.06;5027334;28;20080;-75
2022/01/22 07:33:28;;;;;;;1.67;1.58;;;;;;;-4.51;47.52;93819.13;5026891;28;20452;-75
2022/01/22 07:35:53;;;;;;;6.28;1.70;;;;;;;-4.27;48.09;93840.00;5029341;28;20096;-74
2022/01/22 07:38:20;;;;;;;3.03;1.95;;;;;;;-4.17;47.01;93838.44;5026496;28;20061;-75
2022/01/22 07:40:46;;;;;;;2.10;1.92;;;;;;;-4.14;47.11;93834.59;5024993;28;20061;-76
2022/01/22 07:43:11;;;;;;;3.42;1.65;;;;;;;-4.21;46.62;93826.13;5019391;28;20456;-74
2022/01/22 07:45:37;;;;;;;4.80;3.05;;;;;;;-4.64;47.34;93816.72;5021151;28;20048;-75
2022/01/22 07:48:03;;;;;;;2.35;1.92;;;;;;;-4.65;48.61;93830.72;5024835;28;20025;-75
2022/01/22 07:50:28;;;;;;;3.22;1.90;;;;;;;-4.93;48.74;93805.28;5022484;28;20513;-76
2022/01/22 07:52:54;;;;;;;2.92;2.15;;;;;;;-4.65;48.43;93815.13;5021362;28;20049;-76
2022/01/22 07:55:21;;;;;;;1.85;1.75;;;;;;;-4.61;48.36;93808.50;5026641;28;20061;-75
2022/01/22 07:57:47;;;;;;;1.60;1.50;;;;;;;-4.53;46.62;93813.38;5027138;28;20034;-74
2022/01/22 08:00:16;;;;;;;2.22;2.13;;;;;;;-4.55;46.88;93836.16;5026919;28;20043;-73
2022/01/22 08:02:42;;;;;;;1.35;1.35;;;;;;;-4.72;47.21;93818.81;5030376;28;20075;-74
2022/01/22 08:05:08;;;;;;;2.20;2.10;;;;;;;-4.56;47.46;93844.97;5027959;28;20050;-76
2022/01/22 08:07:33;;;;;;;1.52;1.45;;;;;;;-4.61;47.59;93838.84;5026495;28;20041;-74
2022/01/22 08:09:59;;;;;;;2.55;2.38;;;;;;;-4.95;48.40;93793.56;5025852;28;20058;-75
2022/01/22 08:12:24;;;;;;;3.05;2.38;;;;;;;-4.73;48.61;93815.41;5029295;28;20041;-75
2022/01/22 08:14:50;;;;;;;2.10;1.73;;;;;;;-4.91;48.42;93797.28;5024119;28;20053;-76
2022/01/22 08:17:16;;;;;;;1.30;1.30;;;;;;;-4.76;48.13;93836.63;5019668;28;20040;-75
2022/01/22 08:19:41;;;;;;;3.95;2.00;;;;;;;-4.76;48.04;93792.50;5026388;28;20048;-75
2022/01/22 08:22:07;;;;;;;2.75;1.88;;;;;;;-4.85;47.80;93782.66;5026620;28;20500;-74
2022/01/22 08:24:33;;;;;;;1.75;1.65;;;;;;;-4.67;46.28;93800.78;5028266;28;20036;-74
2022/01/22 08:30:00;;;;;;;1.20;1.20;;;;;;;-4.51;45.21;93811.34;5010927;28;20165;-75
2022/01/22 08:32:56;;;;;;;1.63;1.60;;;;;;;-4.48;44.58;93807.50;5008589;28;20045;-75
2022/01/22 08:38:01;;;;;;;1.67;1.58;;;;;;;-4.50;45.77;93812.16;5027497;28;20045;-74
2022/01/22 08:40:26;;;;;;;1.85;1.52;;;;;;;-4.44;45.49;93804.25;5023910;28;20717;-75
2022/01/22 08:42:51;;;;;;;3.28;2.97;;;;;;;-4.36;46.09;93792.00;5024540;28;20030;-74
2022/01/22 08:45:17;;;;;;;2.28;2.08;;;;;;;-4.14;45.99;93819.03;5026400;28;20038;-76
2022/01/22 08:47:42;;;;;;;2.65;1.98;;;;;;;-4.36;46.17;93766.03;5027122;28;20485;-76
2022/01/22 08:50:08;;;;;;;1.70;1.60;;;;;;;-4.08;46.07;93779.19;5028600;28;20030;-73
2022/01/22 08:52:36;;;;;;;2.85;1.50;;;;;;;-4.27;45.99;93806.22;5020754;28;20072;-74
2022/01/22 08:55:03;;;;;;;2.00;1.75;;;;;;;-4.53;46.53;93800.38;5022211;28;20045;-75
2022/01/22 08:57:28;;;;;;;2.40;2.00;;;;;;;-4.44;46.98;93791.28;5018589;28;20243;-75
2022/01/22 08:59:54;;;;;;;2.63;2.42;;;;;;;-4.31;46.55;93794.72;5022651;28;20025;-74
2022/01/22 09:02:19;;;;;;;8.07;2.67;;;;;;;-4.36;46.96;93795.38;5021384;28;20064;-74
2022/01/22 09:04:46;;;;;;;4.35;3.45;;;;;;;-4.23;47.21;93817.75;5024203;28;20060;-75
2022/01/22 09:07:11;;;;;;;1.70;1.60;;;;;;;-4.27;46.60;93801.03;5020762;28;20038;-73
2022/01/22 09:09:37;;;;;;;2.15;2.05;;;;;;;-4.05;47.11;93812.50;5024078;28;20032;-75
2022/01/22 09:12:05;;;;;;;1.92;1.63;;;;;;;-3.80;47.41;93813.09;5025173;28;20017;-76
2022/01/22 09:14:31;;;;;;;6.72;1.67;;;;;;;-3.67;47.48;93823.31;5024849;28;20122;-75
2022/01/22 09:16:58;;;;;;;6.22;2.80;;;;;;;-3.69;47.56;93796.72;5024073;28;20061;-74
2022/01/22 09:19:32;;;;;;;2.92;1.85;;;;;;;-3.89;47.23;93800.66;5022200;28;20038;-73
2022/01/22 09:21:58;;;;;;;2.15;2.05;;;;;;;-3.93;47.68;93804.72;5026832;28;20044;-75
2022/01/22 09:24:23;;;;;;;1.92;1.83;;;;;;;-4.03;47.39;93813.06;5026196;28;20017;-73
2022/01/22 09:26:49;;;;;;;1.70;1.60;;;;;;;-4.19;47.28;93795.53;5024537;28;20022;-75
2022/01/22 09:29:16;;;;;;;2.75;2.15;;;;;;;-4.24;47.60;93805.78;5023987;28;20493;-76
2022/01/22 09:31:42;;;;;;;2.20;2.05;;;;;;;-4.38;48.06;93789.59;5021628;28;20058;-75
2022/01/22 09:34:09;;;;;;;2.10;2.00;;;;;;;-4.34;48.14;93777.00;5020329;28;20092;-75
2022/01/22 09:36:35;;;;;;;2.60;1.95;;;;;;;-4.23;47.55;93781.41;5026016;28;20033;-75
2022/01/22 09:39:02;;;;;;;3.58;2.10;;;;;;;-4.39;47.84;93750.91;5024126;28;20120;-74
2022/01/22 09:41:28;;;;;;;2.65;2.45;;;;;;;-4.23;47.21;93791.78;5020969;28;20037;-75
2022/01/22 09:43:54;;;;;;;1.50;1.30;;;;;;;-4.29;47.00;93785.66;5019494;28;20037;-75
2022/01/22 09:46:21;;;;;;;1.98;1.88;;;;;;;-4.53;47.06;93750.28;5017894;28;20049;-74
2022/01/22 09:48:48;;;;;;;2.85;2.20;;;;;;;-4.42;47.30;93752.13;5023866;28;20045;-75
2022/01/22 09:51:14;;;;;;;1.58;1.55;;;;;;;-4.30;46.61;93755.56;5018261;28;20072;-73
2022/01/22 09:53:42;;;;;;;1.65;1.45;;;;;;;-4.64;46.56;93725.91;5020632;28;20633;-75
2022/01/22 09:56:07;;;;;;;2.83;2.08;;;;;;;-4.74;46.41;93756.78;5018660;28;20034;-75
2022/01/22 09:58:33;;;;;;;2.55;1.73;;;;;;;-4.77;45.74;93752.00;5014922;28;20048;-75
2022/01/22 10:01:17;;;;;;;1.75;1.65;;;;;;;-4.79;46.02;93738.47;5019786;28;20132;-75
2022/01/22 10:03:43;;;;;;;1.48;1.45;;;;;;;-5.01;46.48;93695.84;5018014;28;20048;-75
2022/01/22 10:06:17;;;;;;;1.98;1.60;;;;;;;-4.77;46.47;93707.09;5016555;28;20049;-73
2022/01/22 10:08:42;;;;;;;2.33;2.23;;;;;;;-4.59;45.15;93710.44;5018927;28;20038;-76
2022/01/22 10:11:23;;;;;;;1.70;1.60;;;;;;;-4.32;45.68;93700.44;5022372;28;20285;-74
2022/01/22 10:13:52;;;;;;;2.10;2.00;;;;;;;-4.22;45.72;93705.88;5019685;28;20045;-73
2022/01/22 10:16:28;;;;;;;2.58;2.35;;;;;;;-3.88;44.74;93717.28;5029003;28;20041;-75
2022/01/22 10:19:10;;;;;;;1.92;1.83;;;;;;;-3.73;44.78;93715.03;5020982;28;20049;-74
2022/01/22 10:21:36;;;;;;;2.03;1.92;;;;;;;-3.54;44.50;93718.28;5020672;28;20088;-74
2022/01/22 10:24:26;;;;;;;2.03;1.67;;;;;;;-3.46;44.58;93724.97;5017344;28;20034;-75
2022/01/22 10:27:11;;;;;;;1.80;1.70;;;;;;;-3.63;44.65;93683.28;5022915;28;20046;-75
2022/01/22 10:29:36;;;;;;;2.22;2.03;;;;;;;-3.37;44.86;93723.59;5017678;28;20041;-75
2022/01/22 10:32:03;;;;;;;1.85;1.75;;;;;;;-3.54;44.40;93722.69;5018769;28;20106;-73
2022/01/22 10:34:31;;;;;;;3.65;2.55;;;;;;;-3.62;45.09;93705.66;5019169;28;20591;-74
2022/01/22 10:36:58;;;;;;;1.83;1.65;;;;;;;-3.54;44.66;93720.09;5028883;28;20042;-72
2022/01/22 10:39:26;;;;;;;9.27;1.60;;;;;;;-3.57;45.11;93718.75;5026352;28;20029;-72
2022/01/22 10:41:52;;;;;;;2.15;2.00;;;;;;;-3.24;44.46;93724.13;5021420;28;20683;-74
2022/01/22 10:44:35;;;;;;;2.35;2.22;;;;;;;-3.29;44.17;93705.81;5021483;28;20038;-75
2022/01/22 10:47:04;;;;;;;2.72;2.53;;;;;;;-3.44;44.38;93704.72;5020525;28;20045;-73
2022/01/22 10:49:30;;;;;;;2.22;2.05;;;;;;;-3.27;45.57;93708.19;5019679;28;20050;-75
2022/01/22 10:51:59;;;;;;;2.83;2.63;;;;;;;-3.25;45.34;93700.94;5020972;28;20042;-74
2022/01/22 10:54:27;;;;;;;3.67;2.03;;;;;;;-3.09;44.89;93697.63;5019876;28;20029;-75
2022/01/22 10:56:53;;;;;;;7.63;2.55;;;;;;;-3.08;43.99;93675.78;5017941;28;20083;-75
2022/01/22 10:59:21;;;;;;;2.92;2.08;;;;;;;-3.18;43.60;93673.00;5021668;28;20071;-75
2022/01/22 11:01:55;;;;;;;3.35;2.58;;;;;;;-2.99;43.34;93684.81;5021920;28;20049;-75
2022/01/22 11:04:30;;;;;;;2.22;2.03;;;;;;;-2.80;43.78;93683.59;5019234;28;20122;-73
2022/01/22 11:06:59;;;;;;;2.33;2.20;;;;;;;-2.79;43.17;93700.00;5021575;28;20034;-75
2022/01/22 11:09:27;;;;;;;3.50;1.83;;;;;;;-3.02;43.15;93694.88;5020635;28;20022;-72
2022/01/22 11:11:53;;;;;;;2.85;1.85;;;;;;;-3.05;43.63;93664.91;5021456;28;20026;-74
2022/01/22 11:14:20;;;;;;;2.20;2.00;;;;;;;-2.95;43.63;93688.50;5022803;28;20061;-72
2022/01/22 11:16:48;;;;;;;2.42;2.28;;;;;;;-3.08;43.94;93675.00;5019935;28;20156;-74
2022/01/22 11:19:32;;;;;;;1.60;1.50;;;;;;;-3.13;43.94;93678.28;5024449;28;20248;-75
2022/01/22 11:22:11;;;;;;;2.08;1.85;;;;;;;-2.87;43.88;93677.72;5026533;28;20617;-75
2022/01/22 11:24:49;;;;;;;1.90;1.80;;;;;;;-2.72;43.97;93669.38;5025804;28;20030;-75
2022/01/22 11:27:20;;;;;;;2.67;2.47;;;;;;;-2.77;43.34;93644.06;5030319;28;20021;-75
2022/01/22 11:30:14;;;;;;;1.83;1.73;;;;;;;-2.54;43.10;93665.81;5032979;28;20038;-75
2022/01/22 11:32:47;;;;;;;4.45;2.83;;;;;;;-2.59;43.46;93639.69;5022520;28;20036;-75
2022/01/22 11:35:56;;;;;;;2.80;2.55;;;;;;;-2.44;43.04;93660.75;5025552;28;20029;-76
2022/01/22 11:38:33;;;;;;;1.80;1.70;;;;;;;-2.38;42.97;93662.41;4994392;28;20170;-74
2022/01/22 11:41:04;;;;;;;3.15;2.33;;;;;;;-2.43;44.02;93655.28;5013019;28;20022;-75
2022/01/22 11:44:10;;;;;;;3.20;2.20;;;;;;;-2.39;42.77;93627.75;5015794;28;20080;-72
2022/01/22 11:46:42;;;;;;;5.50;2.88;;;;;;;-2.10;43.35;93654.53;5026079;28;20045;-75
2022/01/22 11:49:26;;;;;;;2.45;2.22;;;;;;;-1.88;43.05;93655.34;5025353;28;20033;-75
2022/01/22 11:52:11;;;;;;;3.10;1.92;;;;;;;-1.85;42.65;93667.88;5024272;28;20053;-73
2022/01/22 11:55:05;;;;;;;3.47;2.22;;;;;;;-2.41;43.15;93603.78;5022706;28;20025;-76
2022/01/22 11:57:32;;;;;;;12.23;7.43;;;;;;;-2.48;44.31;93654.41;5017356;28;20041;-73
2022/01/22 12:00:14;;;;;;;8.32;6.43;;;;;;;-2.61;45.37;93663.34;5022073;28;20029;-75
2022/01/22 12:02:40;;;;;;;5.55;4.43;;;;;;;-2.54;45.63;93621.53;5023817;28;20048;-74
2022/01/22 12:05:06;;;;;;;5.82;2.20;;;;;;;-2.40;44.38;93641.03;5024613;28;20057;-75
2022/01/22 12:07:35;;;;;;;2.65;2.45;;;;;;;-2.61;45.33;93628.69;5023634;28;20054;-76
2022/01/22 12:10:19;;;;;;;5.82;3.35;;;;;;;-2.57;46.13;93638.41;5017484;28;20050;-73
2022/01/22 12:15:19;;;;;;;2.10;1.70;;;;;;;-2.62;45.78;93627.13;5021516;28;20030;-75
2022/01/22 12:17:54;;;;;;;2.03;1.90;;;;;;;-2.67;46.70;93640.03;5019209;28;20041;-74
2022/01/22 12:23:07;;;;;;;2.00;1.85;;;;;;;-2.80;48.35;93643.75;5027306;28;20008;-76
2022/01/22 12:25:35;;;;;;;1.40;1.30;;;;;;;-3.01;48.51;93645.19;5019039;28;20053;-75
2022/01/22 12:28:03;;;;;;;2.50;2.30;;;;;;;-3.09;50.13;93632.56;5028101;28;20061;-75
2022/01/22 12:30:33;;;;;;;3.13;2.50;;;;;;;-2.87;49.85;93651.69;5025145;28;20026;-75
2022/01/22 12:33:01;;;;;;;3.15;2.75;;;;;;;-2.90;50.96;93646.97;5026614;28;20041;-73
2022/01/22 12:35:42;;;;;;;4.40;2.60;;;;;;;-2.85;51.31;93644.44;5028688;28;20083;-75
2022/01/22 12:38:43;;;;;;;3.10;2.10;;;;;;;-2.76;51.74;93645.66;5027778;28;20046;-73
2022/01/22 12:44:09;;;;;;;3.08;2.35;;;;;;;-3.07;50.99;93638.31;5024767;28;20041;-74
2022/01/22 12:46:36;;;;;;;2.05;1.95;;;;;;;-3.01;50.92;93634.00;5026378;28;20038;-75
2022/01/22 12:49:08;;;;;;;4.78;2.75;;;;;;;-3.05;50.68;93614.69;5023098;28;20046;-74
2022/01/22 12:51:35;;;;;;;3.03;2.50;;;;;;;-2.94;50.72;93621.66;5027584;28;20029;-75
2022/01/22 12:54:04;;;;;;;2.33;2.13;;;;;;;-2.87;51.15;93620.47;5025076;28;20041;-75
2022/01/22 12:59:08;;;;;;;4.90;2.67;;;;;;;-3.18;49.67;93619.16;5024733;28;20049;-75
2022/01/22 13:01:36;;;;;;;2.08;1.88;;;;;;;-3.38;49.60;93582.38;5025185;28;20695;-75
2022/01/22 13:04:06;;;;;;;2.65;1.70;;;;;;;-3.07;48.93;93603.75;5022662;28;20101;-75
2022/01/22 13:06:37;;;;;;;4.38;2.53;;;;;;;-3.07;48.96;93599.28;5026017;28;20096;-75
2022/01/22 13:09:03;;;;;;;3.92;2.42;;;;;;;-3.22;48.58;93580.84;5022287;28;20784;-75
2022/01/22 13:11:31;;;;;;;3.35;1.83;;;;;;;-3.39;48.55;93578.19;5024521;28;20065;-76
2022/01/22 13:13:57;;;;;;;5.78;2.85;;;;;;;-3.45;48.12;93570.53;5021849;28;20038;-75
2022/01/22 13:16:23;;;;;;;7.78;5.65;;;;;;;-3.51;48.66;93550.69;5021958;28;20091;-75
2022/01/22 13:18:56;;;;;;;4.53;3.20;;;;;;;-3.09;48.28;93593.56;5024879;28;20449;-75
2022/01/22 13:21:22;;;;;;;2.42;2.00;;;;;;;-2.95;47.72;93578.44;5023974;28;20453;-75
2022/01/22 13:23:58;;;;;;;4.30;2.42;;;;;;;-2.90;47.25;93568.91;5027644;28;20052;-76